sensor_id;sensor_type;location;lat;lon;timestamp;temperature;humidity
18779;DHT22;9518;51.720;14.384;2022-12-10T00:01:43;0.40;99.90
18779;DHT22;9518;51.720;14.384;2022-12-10T00:04:11;0.40;99.90
18779;DHT22;9518;51.720;14.384;2022-12-10T00:06:39;0.40;99.90
18779;DHT22;9518;51.720;14.384;2022-12-10T00:09:09;0.40;99.90
18779;DHT22;9518;51.720;14.384;2022-12-10T00:11:37;0.40;99.90
18779;DHT22;9518;51.720;14.384;2022-12-10T00:14:05;0.40;99.90
18779;DHT22;9518;51.720;14.384;2022-12-10T00:16:33;0.40;99.90
18779;DHT22;9518;51.720;14.384;2022-12-10T00:19:02;0.40;99.90
18779;DHT22;9518;51.720;14.384;2022-12-10T00:21:30;0.40;99.90
18779;DHT22;9518;51.720;14.384;2022-12-10T00:23:58;0.30;99.90
18779;DHT22;9518;51.720;14.384;2022-12-10T00:26:28;0.40;99.90
18779;DHT22;9518;51.720;14.384;2022-12-10T00:28:56;0.40;99.90
18779;DHT22;9518;51.720;14.384;2022-12-10T00:31:26;0.40;99.90
18779;DHT22;9518;51.720;14.384;2022-12-10T00:33:55;0.40;99.90
18779;DHT22;9518;51.720;14.384;2022-12-10T00:36:24;0.40;99.90
18779;DHT22;9518;51.720;14.384;2022-12-10T00:38:52;0.30;99.90
18779;DHT22;9518;51.720;14.384;2022-12-10T00:41:19;0.30;99.90
18779;DHT22;9518;51.720;14.384;2022-12-10T00:43:47;0.30;99.90
18779;DHT22;9518;51.720;14.384;2022-12-10T00:46:15;0.30;99.90
18779;DHT22;9518;51.720;14.384;2022-12-10T00:48:43;0.30;99.90
18779;DHT22;9518;51.720;14.384;2022-12-10T00:51:12;0.30;99.90
18779;DHT22;9518;51.720;14.384;2022-12-10T00:53:42;0.30;99.90
18779;DHT22;9518;51.720;14.384;2022-12-10T00:56:10;0.30;99.90
18779;DHT22;9518;51.720;14.384;2022-12-10T00:58:38;0.30;99.90
18779;DHT22;9518;51.720;14.384;2022-12-10T01:01:11;0.30;99.90
18779;DHT22;9518;51.720;14.384;2022-12-10T01:03:39;0.40;99.90
18779;DHT22;9518;51.720;14.384;2022-12-10T01:06:10;0.40;99.90
18779;DHT22;9518;51.720;14.384;2022-12-10T01:08:38;0.30;99.90
18779;DHT22;9518;51.720;14.384;2022-12-10T01:11:07;0.30;99.90
18779;DHT22;9518;51.720;14.384;2022-12-10T01:13:35;0.30;99.90
18779;DHT22;9518;51.720;14.384;2022-12-10T01:16:03;0.30;99.90
18779;DHT22;9518;51.720;14.384;2022-12-10T01:18:31;0.30;99.90
18779;DHT22;9518;51.720;14.384;2022-12-10T01:21:01;0.30;99.90
18779;DHT22;9518;51.720;14.384;2022-12-10T01:23:28;0.30;99.90
18779;DHT22;9518;51.720;14.384;2022-12-10T01:25:59;0.30;99.90
18779;DHT22;9518;51.720;14.384;2022-12-10T01:28:29;0.30;99.90
18779;DHT22;9518;51.720;14.384;2022-12-10T01:31:00;0.30;99.90
18779;DHT22;9518;51.720;14.384;2022-12-10T01:33:27;0.30;99.90
18779;DHT22;9518;51.720;14.384;2022-12-10T01:35:54;0.30;99.90
18779;DHT22;9518;51.720;14.384;2022-12-10T01:38:21;0.30;99.90
18779;DHT22;9518;51.720;14.384;2022-12-10T01:40:48;0.30;99.90
18779;DHT22;9518;51.720;14.384;2022-12-10T01:43:15;0.20;99.90
18779;DHT22;9518;51.720;14.384;2022-12-10T01:45:43;0.20;99.90
18779;DHT22;9518;51.720;14.384;2022-12-10T01:48:10;0.20;99.90
18779;DHT22;9518;51.720;14.384;2022-12-10T01:50:37;0.20;99.90
18779;DHT22;9518;51.720;14.384;2022-12-10T01:53:05;0.20;99.90
18779;DHT22;9518;51.720;14.384;2022-12-10T01:55:41;0.20;99.90
18779;DHT22;9518;51.720;14.384;2022-12-10T01:58:08;0.20;99.90
18779;DHT22;9518;51.720;14.384;2022-12-10T02:00:41;0.30;99.90
18779;DHT22;9518;51.720;14.384;2022-12-10T02:03:14;0.30;99.90
18779;DHT22;9518;51.720;14.384;2022-12-10T02:05:51;0.30;99.90
18779;DHT22;9518;51.720;14.384;2022-12-10T02:08:26;0.30;99.90
18779;DHT22;9518;51.720;14.384;2022-12-10T02:10:59;0.30;99.90
18779;DHT22;9518;51.720;14.384;2022-12-10T02:13:33;0.30;99.90
18779;DHT22;9518;51.720;14.384;2022-12-10T02:16:04;0.20;99.90
18779;DHT22;9518;51.720;14.384;2022-12-10T02:18:37;0.20;99.90
18779;DHT22;9518;51.720;14.384;2022-12-10T02:21:08;0.20;99.90
18779;DHT22;9518;51.720;14.384;2022-12-10T02:23:39;0.30;99.90
18779;DHT22;9518;51.720;14.384;2022-12-10T02:26:12;0.30;99.90
18779;DHT22;9518;51.720;14.384;2022-12-10T02:28:51;0.20;99.90
18779;DHT22;9518;51.720;14.384;2022-12-10T02:31:26;0.20;99.90
18779;DHT22;9518;51.720;14.384;2022-12-10T02:33:57;0.20;99.90
18779;DHT22;9518;51.720;14.384;2022-12-10T02:36:27;0.20;99.90
18779;DHT22;9518;51.720;14.384;2022-12-10T02:38:56;0.20;99.90
18779;DHT22;9518;51.720;14.384;2022-12-10T02:41:28;0.20;99.90
18779;DHT22;9518;51.720;14.384;2022-12-10T02:43:58;0.20;99.90
18779;DHT22;9518;51.720;14.384;2022-12-10T02:46:28;0.30;99.90
18779;DHT22;9518;51.720;14.384;2022-12-10T02:48:58;0.30;99.90
18779;DHT22;9518;51.720;14.384;2022-12-10T02:51:26;0.30;99.90
18779;DHT22;9518;51.720;14.384;2022-12-10T02:53:59;0.30;99.90
18779;DHT22;9518;51.720;14.384;2022-12-10T02:56:33;0.30;99.90
18779;DHT22;9518;51.720;14.384;2022-12-10T02:59:08;0.30;99.90
18779;DHT22;9518;51.720;14.384;2022-12-10T03:01:45;0.30;99.90
18779;DHT22;9518;51.720;14.384;2022-12-10T03:04:22;0.30;99.90
18779;DHT22;9518;51.720;14.384;2022-12-10T03:06:52;0.20;99.90
18779;DHT22;9518;51.720;14.384;2022-12-10T03:09:22;0.20;99.90
18779;DHT22;9518;51.720;14.384;2022-12-10T03:11:54;0.20;99.90
18779;DHT22;9518;51.720;14.384;2022-12-10T03:14:27;0.20;99.90
18779;DHT22;9518;51.720;14.384;2022-12-10T03:16:58;0.30;99.90
18779;DHT22;9518;51.720;14.384;2022-12-10T03:19:30;0.20;99.90
18779;DHT22;9518;51.720;14.384;2022-12-10T03:21:58;0.20;99.90
18779;DHT22;9518;51.720;14.384;2022-12-10T03:24:27;0.20;99.90
18779;DHT22;9518;51.720;14.384;2022-12-10T03:26:55;0.20;99.90
18779;DHT22;9518;51.720;14.384;2022-12-10T03:29:26;0.20;99.90
18779;DHT22;9518;51.720;14.384;2022-12-10T03:31:56;0.20;99.90
18779;DHT22;9518;51.720;14.384;2022-12-10T03:34:23;0.20;99.90
18779;DHT22;9518;51.720;14.384;2022-12-10T03:36:51;0.10;99.90
18779;DHT22;9518;51.720;14.384;2022-12-10T03:39:19;0.10;99.90
18779;DHT22;9518;51.720;14.384;2022-12-10T03:41:46;0.10;99.90
18779;DHT22;9518;51.720;14.384;2022-12-10T03:44:13;0.10;99.90
18779;DHT22;9518;51.720;14.384;2022-12-10T03:46:40;0.10;99.90
18779;DHT22;9518;51.720;14.384;2022-12-10T03:49:09;0.10;99.90
18779;DHT22;9518;51.720;14.384;2022-12-10T03:51:37;0.10;99.90
18779;DHT22;9518;51.720;14.384;2022-12-10T03:54:04;0.10;99.90
18779;DHT22;9518;51.720;14.384;2022-12-10T03:56:31;0.10;99.90
18779;DHT22;9518;51.720;14.384;2022-12-10T03:58:58;0.10;99.90
18779;DHT22;9518;51.720;14.384;2022-12-10T04:01:25;0.10;99.90
18779;DHT22;9518;51.720;14.384;2022-12-10T04:03:52;0.10;99.90
18779;DHT22;9518;51.720;14.384;2022-12-10T04:06:20;0.10;99.90
18779;DHT22;9518;51.720;14.384;2022-12-10T04:08:47;0.10;99.90
18779;DHT22;9518;51.720;14.384;2022-12-10T04:11:15;0.10;99.90
18779;DHT22;9518;51.720;14.384;2022-12-10T04:13:43;0.10;99.90
18779;DHT22;9518;51.720;14.384;2022-12-10T04:16:28;0.00;99.90
18779;DHT22;9518;51.720;14.384;2022-12-10T04:18:57;0.00;99.90
18779;DHT22;9518;51.720;14.384;2022-12-10T04:21:26;0.00;99.90
18779;DHT22;9518;51.720;14.384;2022-12-10T04:24:12;0.00;99.90
18779;DHT22;9518;51.720;14.384;2022-12-10T04:26:57;0.00;99.90
18779;DHT22;9518;51.720;14.384;2022-12-10T04:29:26;0.00;99.90
18779;DHT22;9518;51.720;14.384;2022-12-10T04:31:54;0.00;99.90
18779;DHT22;9518;51.720;14.384;2022-12-10T04:34:22;0.00;99.90
18779;DHT22;9518;51.720;14.384;2022-12-10T04:36:51;0.00;99.90
18779;DHT22;9518;51.720;14.384;2022-12-10T04:39:18;0.00;99.90
18779;DHT22;9518;51.720;14.384;2022-12-10T04:41:47;0.00;99.90
18779;DHT22;9518;51.720;14.384;2022-12-10T04:44:15;0.00;99.90
18779;DHT22;9518;51.720;14.384;2022-12-10T04:46:42;0.00;99.90
18779;DHT22;9518;51.720;14.384;2022-12-10T04:49:10;0.00;99.90
18779;DHT22;9518;51.720;14.384;2022-12-10T04:51:37;0.00;99.90
18779;DHT22;9518;51.720;14.384;2022-12-10T04:54:06;0.00;99.90
18779;DHT22;9518;51.720;14.384;2022-12-10T04:56:34;0.00;99.90
18779;DHT22;9518;51.720;14.384;2022-12-10T04:59:01;0.00;99.90
18779;DHT22;9518;51.720;14.384;2022-12-10T05:01:28;0.00;99.90
18779;DHT22;9518;51.720;14.384;2022-12-10T05:03:59;0.00;99.90
18779;DHT22;9518;51.720;14.384;2022-12-10T05:06:26;0.00;99.90
18779;DHT22;9518;51.720;14.384;2022-12-10T05:08:53;-0.10;99.90
18779;DHT22;9518;51.720;14.384;2022-12-10T05:11:26;0.00;99.90
18779;DHT22;9518;51.720;14.384;2022-12-10T05:13:53;0.00;99.90
18779;DHT22;9518;51.720;14.384;2022-12-10T05:16:21;-0.10;99.90
18779;DHT22;9518;51.720;14.384;2022-12-10T05:18:49;-0.10;99.90
18779;DHT22;9518;51.720;14.384;2022-12-10T05:21:19;-0.10;99.90
18779;DHT22;9518;51.720;14.384;2022-12-10T05:23:48;-0.10;99.90
18779;DHT22;9518;51.720;14.384;2022-12-10T05:26:15;0.00;99.90
18779;DHT22;9518;51.720;14.384;2022-12-10T05:28:46;-0.10;99.90
18779;DHT22;9518;51.720;14.384;2022-12-10T05:31:14;-0.10;99.90
18779;DHT22;9518;51.720;14.384;2022-12-10T05:33:42;-0.10;99.90
18779;DHT22;9518;51.720;14.384;2022-12-10T05:36:11;-0.10;99.90
18779;DHT22;9518;51.720;14.384;2022-12-10T05:38:39;-0.10;99.90
18779;DHT22;9518;51.720;14.384;2022-12-10T05:41:08;-0.10;99.90
18779;DHT22;9518;51.720;14.384;2022-12-10T05:43:35;0.00;99.90
18779;DHT22;9518;51.720;14.384;2022-12-10T05:46:05;-0.10;99.90
18779;DHT22;9518;51.720;14.384;2022-12-10T05:48:33;-0.10;99.90
18779;DHT22;9518;51.720;14.384;2022-12-10T05:51:03;-0.10;99.90
18779;DHT22;9518;51.720;14.384;2022-12-10T05:53:30;-0.10;99.90
18779;DHT22;9518;51.720;14.384;2022-12-10T05:56:00;0.00;99.90
18779;DHT22;9518;51.720;14.384;2022-12-10T05:58:27;0.00;99.90
18779;DHT22;9518;51.720;14.384;2022-12-10T06:00:55;-0.10;99.90
18779;DHT22;9518;51.720;14.384;2022-12-10T06:03:24;-0.10;99.90
18779;DHT22;9518;51.720;14.384;2022-12-10T06:05:52;-0.10;99.90
18779;DHT22;9518;51.720;14.384;2022-12-10T06:08:19;-0.10;99.90
18779;DHT22;9518;51.720;14.384;2022-12-10T06:10:46;0.00;99.90
18779;DHT22;9518;51.720;14.384;2022-12-10T06:13:13;-0.10;99.90
18779;DHT22;9518;51.720;14.384;2022-12-10T06:15:42;-0.20;99.90
18779;DHT22;9518;51.720;14.384;2022-12-10T06:18:09;-0.20;99.90
18779;DHT22;9518;51.720;14.384;2022-12-10T06:20:39;-0.20;99.90
18779;DHT22;9518;51.720;14.384;2022-12-10T06:23:06;-0.20;99.90
18779;DHT22;9518;51.720;14.384;2022-12-10T06:25:37;-0.20;99.90
18779;DHT22;9518;51.720;14.384;2022-12-10T06:28:04;-0.10;99.90
18779;DHT22;9518;51.720;14.384;2022-12-10T06:30:31;-0.20;99.90
18779;DHT22;9518;51.720;14.384;2022-12-10T06:32:58;-0.20;99.90
18779;DHT22;9518;51.720;14.384;2022-12-10T06:35:25;-0.10;99.90
18779;DHT22;9518;51.720;14.384;2022-12-10T06:37:53;-0.20;99.90
18779;DHT22;9518;51.720;14.384;2022-12-10T06:40:20;-0.10;99.90
18779;DHT22;9518;51.720;14.384;2022-12-10T06:42:47;-0.10;99.90
18779;DHT22;9518;51.720;14.384;2022-12-10T06:45:17;-0.10;99.90
18779;DHT22;9518;51.720;14.384;2022-12-10T06:47:44;-0.10;99.90
18779;DHT22;9518;51.720;14.384;2022-12-10T06:50:11;-0.10;99.90
18779;DHT22;9518;51.720;14.384;2022-12-10T06:52:38;-0.10;99.90
18779;DHT22;9518;51.720;14.384;2022-12-10T06:55:07;-0.10;99.90
18779;DHT22;9518;51.720;14.384;2022-12-10T06:57:34;-0.10;99.90
18779;DHT22;9518;51.720;14.384;2022-12-10T07:00:01;-0.10;99.90
18779;DHT22;9518;51.720;14.384;2022-12-10T07:02:29;-0.10;99.90
18779;DHT22;9518;51.720;14.384;2022-12-10T07:04:56;-0.20;99.90
18779;DHT22;9518;51.720;14.384;2022-12-10T07:07:23;-0.10;99.90
18779;DHT22;9518;51.720;14.384;2022-12-10T07:09:50;-0.10;99.90
18779;DHT22;9518;51.720;14.384;2022-12-10T07:12:18;-0.10;99.90
18779;DHT22;9518;51.720;14.384;2022-12-10T07:14:45;-0.10;99.90
18779;DHT22;9518;51.720;14.384;2022-12-10T07:17:12;-0.10;99.90
18779;DHT22;9518;51.720;14.384;2022-12-10T07:19:39;-0.10;99.90
18779;DHT22;9518;51.720;14.384;2022-12-10T07:22:06;-0.10;99.90
18779;DHT22;9518;51.720;14.384;2022-12-10T07:24:33;-0.10;99.90
18779;DHT22;9518;51.720;14.384;2022-12-10T07:27:00;-0.20;99.90
18779;DHT22;9518;51.720;14.384;2022-12-10T07:29:40;-0.10;99.90
18779;DHT22;9518;51.720;14.384;2022-12-10T07:32:07;-0.10;99.90
18779;DHT22;9518;51.720;14.384;2022-12-10T07:34:34;-0.20;99.90
18779;DHT22;9518;51.720;14.384;2022-12-10T07:37:00;-0.20;99.90
18779;DHT22;9518;51.720;14.384;2022-12-10T07:39:27;-0.20;99.90
18779;DHT22;9518;51.720;14.384;2022-12-10T07:41:54;-0.10;99.90
18779;DHT22;9518;51.720;14.384;2022-12-10T07:44:24;-0.10;99.90
18779;DHT22;9518;51.720;14.384;2022-12-10T07:46:53;-0.10;99.90
18779;DHT22;9518;51.720;14.384;2022-12-10T07:49:21;-0.10;99.90
18779;DHT22;9518;51.720;14.384;2022-12-10T07:51:49;-0.20;99.90
18779;DHT22;9518;51.720;14.384;2022-12-10T07:54:17;-0.10;99.90
18779;DHT22;9518;51.720;14.384;2022-12-10T07:56:45;-0.20;99.90
18779;DHT22;9518;51.720;14.384;2022-12-10T07:59:13;-0.10;99.90
18779;DHT22;9518;51.720;14.384;2022-12-10T08:01:40;-0.10;99.90
18779;DHT22;9518;51.720;14.384;2022-12-10T08:04:08;-0.10;99.90
18779;DHT22;9518;51.720;14.384;2022-12-10T08:06:36;-0.10;99.90
18779;DHT22;9518;51.720;14.384;2022-12-10T08:09:03;-0.10;99.90
18779;DHT22;9518;51.720;14.384;2022-12-10T08:11:30;-0.10;99.90
18779;DHT22;9518;51.720;14.384;2022-12-10T08:13:58;-0.10;99.90
18779;DHT22;9518;51.720;14.384;2022-12-10T08:16:26;-0.10;99.90
18779;DHT22;9518;51.720;14.384;2022-12-10T08:18:54;-0.10;99.90
18779;DHT22;9518;51.720;14.384;2022-12-10T08:21:24;-0.10;99.90
18779;DHT22;9518;51.720;14.384;2022-12-10T08:23:53;-0.10;99.90
18779;DHT22;9518;51.720;14.384;2022-12-10T08:26:22;-0.10;99.90
18779;DHT22;9518;51.720;14.384;2022-12-10T08:28:50;-0.10;99.90
18779;DHT22;9518;51.720;14.384;2022-12-10T08:31:19;-0.10;99.90
18779;DHT22;9518;51.720;14.384;2022-12-10T08:33:46;-0.10;99.90
18779;DHT22;9518;51.720;14.384;2022-12-10T08:36:15;-0.10;99.90
18779;DHT22;9518;51.720;14.384;2022-12-10T08:38:44;-0.10;99.90
18779;DHT22;9518;51.720;14.384;2022-12-10T08:41:13;-0.10;99.90
18779;DHT22;9518;51.720;14.384;2022-12-10T08:43:41;0.00;99.90
18779;DHT22;9518;51.720;14.384;2022-12-10T08:46:09;0.00;99.90
18779;DHT22;9518;51.720;14.384;2022-12-10T08:48:37;0.00;99.90
18779;DHT22;9518;51.720;14.384;2022-12-10T08:51:05;0.00;99.90
18779;DHT22;9518;51.720;14.384;2022-12-10T08:53:32;0.00;99.90
18779;DHT22;9518;51.720;14.384;2022-12-10T08:56:01;0.00;99.90
18779;DHT22;9518;51.720;14.384;2022-12-10T08:58:28;0.10;99.90
18779;DHT22;9518;51.720;14.384;2022-12-10T09:00:56;0.10;99.90
18779;DHT22;9518;51.720;14.384;2022-12-10T09:03:24;0.10;99.90
18779;DHT22;9518;51.720;14.384;2022-12-10T09:05:51;0.10;99.90
18779;DHT22;9518;51.720;14.384;2022-12-10T09:08:18;0.10;99.90
18779;DHT22;9518;51.720;14.384;2022-12-10T09:10:45;0.10;99.90
18779;DHT22;9518;51.720;14.384;2022-12-10T09:13:14;0.10;99.90
18779;DHT22;9518;51.720;14.384;2022-12-10T09:15:41;0.10;99.90
18779;DHT22;9518;51.720;14.384;2022-12-10T09:18:15;0.10;99.90
18779;DHT22;9518;51.720;14.384;2022-12-10T09:20:42;0.10;99.90
18779;DHT22;9518;51.720;14.384;2022-12-10T09:23:09;0.10;99.90
18779;DHT22;9518;51.720;14.384;2022-12-10T09:25:36;0.10;99.90
18779;DHT22;9518;51.720;14.384;2022-12-10T09:28:03;0.20;99.90
18779;DHT22;9518;51.720;14.384;2022-12-10T09:30:31;0.20;99.90
18779;DHT22;9518;51.720;14.384;2022-12-10T09:32:58;0.20;99.90
18779;DHT22;9518;51.720;14.384;2022-12-10T09:35:25;0.20;99.90
18779;DHT22;9518;51.720;14.384;2022-12-10T09:37:53;0.20;99.90
18779;DHT22;9518;51.720;14.384;2022-12-10T09:40:24;0.20;99.90
18779;DHT22;9518;51.720;14.384;2022-12-10T09:43:00;0.30;99.90
18779;DHT22;9518;51.720;14.384;2022-12-10T09:45:40;0.30;99.90
18779;DHT22;9518;51.720;14.384;2022-12-10T09:48:17;0.30;99.90
18779;DHT22;9518;51.720;14.384;2022-12-10T09:50:52;0.30;99.90
18779;DHT22;9518;51.720;14.384;2022-12-10T09:53:22;0.40;99.90
18779;DHT22;9518;51.720;14.384;2022-12-10T09:55:50;0.40;99.90
18779;DHT22;9518;51.720;14.384;2022-12-10T09:58:19;0.30;99.90
18779;DHT22;9518;51.720;14.384;2022-12-10T10:00:51;0.40;99.90
18779;DHT22;9518;51.720;14.384;2022-12-10T10:03:18;0.40;99.90
18779;DHT22;9518;51.720;14.384;2022-12-10T10:05:48;0.40;99.90
18779;DHT22;9518;51.720;14.384;2022-12-10T10:08:23;0.40;99.90
18779;DHT22;9518;51.720;14.384;2022-12-10T10:10:52;0.40;99.90
18779;DHT22;9518;51.720;14.384;2022-12-10T10:13:28;0.40;99.90
18779;DHT22;9518;51.720;14.384;2022-12-10T10:16:12;0.40;99.90
18779;DHT22;9518;51.720;14.384;2022-12-10T10:18:45;0.40;99.90
18779;DHT22;9518;51.720;14.384;2022-12-10T10:21:19;0.40;99.90
18779;DHT22;9518;51.720;14.384;2022-12-10T10:23:47;0.40;99.90
18779;DHT22;9518;51.720;14.384;2022-12-10T10:26:14;0.50;99.90
18779;DHT22;9518;51.720;14.384;2022-12-10T10:28:42;0.50;99.90
18779;DHT22;9518;51.720;14.384;2022-12-10T10:31:18;0.60;99.90
18779;DHT22;9518;51.720;14.384;2022-12-10T10:33:50;0.60;99.90
18779;DHT22;9518;51.720;14.384;2022-12-10T10:36:23;0.60;99.90
18779;DHT22;9518;51.720;14.384;2022-12-10T10:38:51;0.60;99.90
18779;DHT22;9518;51.720;14.384;2022-12-10T10:41:18;0.60;99.90
18779;DHT22;9518;51.720;14.384;2022-12-10T10:43:46;0.60;99.90
18779;DHT22;9518;51.720;14.384;2022-12-10T10:46:17;0.60;99.90
18779;DHT22;9518;51.720;14.384;2022-12-10T10:48:48;0.60;99.90
18779;DHT22;9518;51.720;14.384;2022-12-10T10:51:19;0.60;99.90
18779;DHT22;9518;51.720;14.384;2022-12-10T10:53:50;0.70;99.90
18779;DHT22;9518;51.720;14.384;2022-12-10T10:56:19;0.70;99.90
18779;DHT22;9518;51.720;14.384;2022-12-10T10:58:56;0.80;99.90
18779;DHT22;9518;51.720;14.384;2022-12-10T11:01:26;0.80;99.90
18779;DHT22;9518;51.720;14.384;2022-12-10T11:04:09;0.80;99.90
18779;DHT22;9518;51.720;14.384;2022-12-10T11:06:37;0.80;99.90
18779;DHT22;9518;51.720;14.384;2022-12-10T11:09:05;0.90;99.90
18779;DHT22;9518;51.720;14.384;2022-12-10T11:11:33;0.90;99.90
18779;DHT22;9518;51.720;14.384;2022-12-10T11:14:14;0.80;99.90
18779;DHT22;9518;51.720;14.384;2022-12-10T11:16:43;0.90;99.90
18779;DHT22;9518;51.720;14.384;2022-12-10T11:19:19;1.00;99.90
18779;DHT22;9518;51.720;14.384;2022-12-10T11:21:47;1.00;99.90
18779;DHT22;9518;51.720;14.384;2022-12-10T11:24:17;1.10;99.90
18779;DHT22;9518;51.720;14.384;2022-12-10T11:27:00;1.10;99.90
18779;DHT22;9518;51.720;14.384;2022-12-10T11:29:46;1.20;99.90
18779;DHT22;9518;51.720;14.384;2022-12-10T11:35:13;1.10;99.90
18779;DHT22;9518;51.720;14.384;2022-12-10T11:37:49;1.00;99.90
18779;DHT22;9518;51.720;14.384;2022-12-10T11:40:34;1.00;99.90
18779;DHT22;9518;51.720;14.384;2022-12-10T11:43:15;1.00;99.90
18779;DHT22;9518;51.720;14.384;2022-12-10T11:45:53;0.90;99.90
18779;DHT22;9518;51.720;14.384;2022-12-10T11:48:36;0.90;99.90
18779;DHT22;9518;51.720;14.384;2022-12-10T11:51:11;1.00;99.90
18779;DHT22;9518;51.720;14.384;2022-12-10T11:56:46;0.90;99.90
18779;DHT22;9518;51.720;14.384;2022-12-10T11:59:21;1.00;99.90
18779;DHT22;9518;51.720;14.384;2022-12-10T12:02:04;1.00;99.90
18779;DHT22;9518;51.720;14.384;2022-12-10T12:04:49;0.90;99.90
18779;DHT22;9518;51.720;14.384;2022-12-10T12:07:41;0.90;99.90
18779;DHT22;9518;51.720;14.384;2022-12-10T12:10:42;1.00;99.90
18779;DHT22;9518;51.720;14.384;2022-12-10T12:13:16;1.00;99.90
18779;DHT22;9518;51.720;14.384;2022-12-10T12:15:47;0.90;99.90
18779;DHT22;9518;51.720;14.384;2022-12-10T12:18:20;0.90;99.90
18779;DHT22;9518;51.720;14.384;2022-12-10T12:20:53;0.90;99.90
18779;DHT22;9518;51.720;14.384;2022-12-10T12:23:24;0.90;99.90
18779;DHT22;9518;51.720;14.384;2022-12-10T12:25:56;0.90;99.90
18779;DHT22;9518;51.720;14.384;2022-12-10T12:28:30;1.00;99.90
18779;DHT22;9518;51.720;14.384;2022-12-10T12:31:02;1.00;99.90
18779;DHT22;9518;51.720;14.384;2022-12-10T12:33:35;0.90;99.90
18779;DHT22;9518;51.720;14.384;2022-12-10T12:36:11;0.90;99.90
18779;DHT22;9518;51.720;14.384;2022-12-10T12:38:45;0.80;99.90
18779;DHT22;9518;51.720;14.384;2022-12-10T12:41:16;0.80;99.90
18779;DHT22;9518;51.720;14.384;2022-12-10T12:43:50;0.80;99.90
18779;DHT22;9518;51.720;14.384;2022-12-10T12:46:33;0.80;99.90
18779;DHT22;9518;51.720;14.384;2022-12-10T12:49:05;0.80;99.90
18779;DHT22;9518;51.720;14.384;2022-12-10T12:51:40;0.80;99.90
18779;DHT22;9518;51.720;14.384;2022-12-10T12:54:10;0.80;99.90
18779;DHT22;9518;51.720;14.384;2022-12-10T12:56:58;0.80;99.90
18779;DHT22;9518;51.720;14.384;2022-12-10T12:59:40;0.90;99.90
18779;DHT22;9518;51.720;14.384;2022-12-10T13:02:26;0.80;99.90
18779;DHT22;9518;51.720;14.384;2022-12-10T13:04:58;0.90;99.90
18779;DHT22;9518;51.720;14.384;2022-12-10T13:07:34;0.90;99.90
18779;DHT22;9518;51.720;14.384;2022-12-10T13:10:17;1.00;99.90
18779;DHT22;9518;51.720;14.384;2022-12-10T13:12:46;0.90;99.90
18779;DHT22;9518;51.720;14.384;2022-12-10T13:15:19;0.80;99.90
18779;DHT22;9518;51.720;14.384;2022-12-10T13:18:33;0.90;99.90
18779;DHT22;9518;51.720;14.384;2022-12-10T13:21:26;0.90;99.90
18779;DHT22;9518;51.720;14.384;2022-12-10T13:24:06;0.90;99.90
18779;DHT22;9518;51.720;14.384;2022-12-10T13:26:34;0.90;99.90
18779;DHT22;9518;51.720;14.384;2022-12-10T13:29:23;0.90;99.90
18779;DHT22;9518;51.720;14.384;2022-12-10T13:32:02;0.90;99.90
18779;DHT22;9518;51.720;14.384;2022-12-10T13:34:33;0.80;99.90
18779;DHT22;9518;51.720;14.384;2022-12-10T13:37:29;0.70;99.90
18779;DHT22;9518;51.720;14.384;2022-12-10T13:40:14;0.80;99.90
18779;DHT22;9518;51.720;14.384;2022-12-10T13:42:44;0.70;99.90
18779;DHT22;9518;51.720;14.384;2022-12-10T13:45:35;0.70;99.90
18779;DHT22;9518;51.720;14.384;2022-12-10T13:48:28;0.70;99.90
18779;DHT22;9518;51.720;14.384;2022-12-10T13:51:26;0.60;99.90
18779;DHT22;9518;51.720;14.384;2022-12-10T13:54:13;0.60;99.90
18779;DHT22;9518;51.720;14.384;2022-12-10T13:56:53;0.60;99.90
18779;DHT22;9518;51.720;14.384;2022-12-10T13:59:30;0.60;99.90
18779;DHT22;9518;51.720;14.384;2022-12-10T14:02:23;0.60;99.90
18779;DHT22;9518;51.720;14.384;2022-12-10T14:05:09;0.50;99.90
18779;DHT22;9518;51.720;14.384;2022-12-10T14:07:39;0.50;99.90
18779;DHT22;9518;51.720;14.384;2022-12-10T14:10:13;0.40;99.90
18779;DHT22;9518;51.720;14.384;2022-12-10T14:12:44;0.50;99.90
18779;DHT22;9518;51.720;14.384;2022-12-10T14:15:16;0.50;99.90
18779;DHT22;9518;51.720;14.384;2022-12-10T14:17:45;0.40;99.90
18779;DHT22;9518;51.720;14.384;2022-12-10T14:20:17;0.40;99.90
18779;DHT22;9518;51.720;14.384;2022-12-10T14:22:47;0.40;99.90
18779;DHT22;9518;51.720;14.384;2022-12-10T14:25:17;0.40;99.90
18779;DHT22;9518;51.720;14.384;2022-12-10T14:27:47;0.40;99.90
18779;DHT22;9518;51.720;14.384;2022-12-10T14:30:21;0.40;99.90
18779;DHT22;9518;51.720;14.384;2022-12-10T14:32:54;0.30;99.90
18779;DHT22;9518;51.720;14.384;2022-12-10T14:35:26;0.30;99.90
18779;DHT22;9518;51.720;14.384;2022-12-10T14:37:56;0.30;99.90
18779;DHT22;9518;51.720;14.384;2022-12-10T14:40:25;0.30;99.90
18779;DHT22;9518;51.720;14.384;2022-12-10T14:43:02;0.20;99.90
18779;DHT22;9518;51.720;14.384;2022-12-10T14:45:35;0.30;99.90
18779;DHT22;9518;51.720;14.384;2022-12-10T14:48:05;0.10;99.90
18779;DHT22;9518;51.720;14.384;2022-12-10T14:50:34;0.10;99.90
18779;DHT22;9518;51.720;14.384;2022-12-10T14:53:01;0.10;99.90
18779;DHT22;9518;51.720;14.384;2022-12-10T14:55:28;0.10;99.90
18779;DHT22;9518;51.720;14.384;2022-12-10T14:58:00;0.10;99.90
18779;DHT22;9518;51.720;14.384;2022-12-10T15:00:28;0.10;99.90
18779;DHT22;9518;51.720;14.384;2022-12-10T15:02:58;0.10;99.90
18779;DHT22;9518;51.720;14.384;2022-12-10T15:05:27;0.10;99.90
18779;DHT22;9518;51.720;14.384;2022-12-10T15:07:56;0.10;99.90
18779;DHT22;9518;51.720;14.384;2022-12-10T15:10:25;0.10;99.90
18779;DHT22;9518;51.720;14.384;2022-12-10T15:12:53;0.00;99.90
18779;DHT22;9518;51.720;14.384;2022-12-10T15:15:28;0.00;99.90
18779;DHT22;9518;51.720;14.384;2022-12-10T15:17:59;0.00;99.90
18779;DHT22;9518;51.720;14.384;2022-12-10T15:20:27;0.10;99.90
18779;DHT22;9518;51.720;14.384;2022-12-10T15:23:07;0.10;99.90
18779;DHT22;9518;51.720;14.384;2022-12-10T15:25:42;0.00;99.90
18779;DHT22;9518;51.720;14.384;2022-12-10T15:28:22;0.00;99.90
18779;DHT22;9518;51.720;14.384;2022-12-10T15:30:54;0.00;99.90
18779;DHT22;9518;51.720;14.384;2022-12-10T15:33:29;0.10;99.90
18779;DHT22;9518;51.720;14.384;2022-12-10T15:35:58;0.00;99.90
18779;DHT22;9518;51.720;14.384;2022-12-10T15:38:26;0.00;99.90
18779;DHT22;9518;51.720;14.384;2022-12-10T15:40:58;-0.10;99.90
18779;DHT22;9518;51.720;14.384;2022-12-10T15:43:27;0.00;99.90
18779;DHT22;9518;51.720;14.384;2022-12-10T15:45:57;0.00;99.90
18779;DHT22;9518;51.720;14.384;2022-12-10T15:48:28;0.00;99.90
18779;DHT22;9518;51.720;14.384;2022-12-10T15:50:55;0.00;99.90
18779;DHT22;9518;51.720;14.384;2022-12-10T15:53:27;-0.10;99.90
18779;DHT22;9518;51.720;14.384;2022-12-10T15:55:54;-0.10;99.90
18779;DHT22;9518;51.720;14.384;2022-12-10T15:58:21;-0.10;99.90
18779;DHT22;9518;51.720;14.384;2022-12-10T16:00:48;0.00;99.90
18779;DHT22;9518;51.720;14.384;2022-12-10T16:03:17;0.00;99.90
18779;DHT22;9518;51.720;14.384;2022-12-10T16:05:46;0.00;99.90
18779;DHT22;9518;51.720;14.384;2022-12-10T16:08:18;0.00;99.90
18779;DHT22;9518;51.720;14.384;2022-12-10T16:10:47;0.10;99.90
18779;DHT22;9518;51.720;14.384;2022-12-10T16:13:17;0.00;99.90